createdAt,value
2023-03-15T00:02:08.255Z,5.50
2023-03-15T00:04:37.682Z,5.20
2023-03-15T00:07:07.540Z,5.80
2023-03-15T00:09:36.748Z,5.70
2023-03-15T00:12:06.335Z,7.10
2023-03-15T00:14:35.296Z,5.20
2023-03-15T00:17:04.587Z,9.30
2023-03-15T00:19:33.903Z,7.40
2023-03-15T00:22:03.133Z,4.20
2023-03-15T00:24:31.824Z,4.70
2023-03-15T00:27:00.710Z,6.70
2023-03-15T00:29:29.888Z,4.80
2023-03-15T00:31:59.752Z,4.60
2023-03-15T00:34:29.124Z,4.60
2023-03-15T00:36:58.298Z,3.90
2023-03-15T00:39:27.631Z,13.70
2023-03-15T00:41:59.842Z,6.00
2023-03-15T00:44:29.486Z,5.80
2023-03-15T00:46:58.500Z,4.40
2023-03-15T00:49:27.559Z,4.20
2023-03-15T00:51:56.464Z,5.40
2023-03-15T00:54:25.551Z,4.30
2023-03-15T00:56:54.929Z,3.10
2023-03-15T00:59:23.945Z,4.60
2023-03-15T01:01:53.021Z,3.60
2023-03-15T01:04:21.924Z,4.10
2023-03-15T01:06:50.856Z,4.80
2023-03-15T01:09:19.983Z,3.50
2023-03-15T01:11:48.792Z,6.00
2023-03-15T01:14:19.392Z,21.20
2023-03-15T01:16:48.504Z,63.80
2023-03-15T01:19:17.847Z,47.60
2023-03-15T01:21:48.323Z,4.00
2023-03-15T01:24:17.487Z,4.80
2023-03-15T01:26:46.911Z,3.80
2023-03-15T01:29:18.471Z,3.90
2023-03-15T01:31:47.443Z,5.10
2023-03-15T01:34:16.425Z,8.50
2023-03-15T01:36:45.179Z,5.00
2023-03-15T01:39:14.163Z,5.20
2023-03-15T01:41:43.610Z,5.10
2023-03-15T01:44:17.680Z,4.40
2023-03-15T01:46:46.992Z,3.60
2023-03-15T01:49:31.918Z,5.20
2023-03-15T01:52:13.351Z,4.40
2023-03-15T01:54:47.712Z,3.60
2023-03-15T01:57:23.576Z,2.30
2023-03-15T02:00:13.987Z,4.90
2023-03-15T02:02:48.542Z,22.20
2023-03-15T02:05:24.931Z,36.40
2023-03-15T02:07:54.921Z,39.40
2023-03-15T02:10:43.132Z,39.30
2023-03-15T02:13:17.516Z,40.60
2023-03-15T02:15:49.524Z,31.10
2023-03-15T02:18:18.238Z,31.60
2023-03-15T02:21:09.144Z,28.30
2023-03-15T02:23:38.140Z,63.00
2023-03-15T02:26:49.129Z,77.30
2023-03-15T02:29:18.023Z,25.80
2023-03-15T02:31:46.903Z,3.60
2023-03-15T02:34:16.118Z,6.50
2023-03-15T02:36:44.991Z,14.10
2023-03-15T02:39:16.806Z,7.70
2023-03-15T02:41:57.770Z,4.70
2023-03-15T02:44:36.544Z,3.30
2023-03-15T02:47:09.899Z,3.60
2023-03-15T02:49:43.849Z,3.10
2023-03-15T02:52:14.391Z,3.50
2023-03-15T02:54:46.150Z,4.20
2023-03-15T02:57:17.273Z,4.10
2023-03-15T02:59:46.215Z,3.20
2023-03-15T03:02:15.738Z,2.90
2023-03-15T03:04:44.591Z,4.50
2023-03-15T03:07:13.607Z,4.00
2023-03-15T03:09:42.978Z,3.60
2023-03-15T03:12:11.851Z,14.70
2023-03-15T03:14:43.733Z,4.60
2023-03-15T03:17:12.873Z,6.20
2023-03-15T03:19:41.617Z,20.30
2023-03-15T03:22:13.592Z,9.50
2023-03-15T03:24:46.364Z,4.00
2023-03-15T03:27:16.189Z,20.30
2023-03-15T03:29:45.249Z,5.30
2023-03-15T03:32:14.278Z,4.60
2023-03-15T03:34:48.981Z,3.40
2023-03-15T03:37:22.123Z,6.30
2023-03-15T03:39:53.303Z,14.30
2023-03-15T03:42:22.270Z,4.30
2023-03-15T03:44:51.468Z,8.50
2023-03-15T03:47:20.917Z,18.30
2023-03-15T03:49:49.812Z,3.10
2023-03-15T03:52:18.807Z,3.20
2023-03-15T03:54:47.945Z,3.30
2023-03-15T03:57:16.985Z,12.30
2023-03-15T03:59:45.954Z,5.50
2023-03-15T04:02:15.248Z,3.50
2023-03-15T04:04:44.340Z,3.50
2023-03-15T04:07:14.519Z,6.80
2023-03-15T04:09:44.289Z,11.00
2023-03-15T04:12:13.643Z,15.70
2023-03-15T04:14:42.522Z,7.20
2023-03-15T04:17:11.976Z,5.60
2023-03-15T04:19:40.870Z,3.50
2023-03-15T04:22:09.680Z,8.60
2023-03-15T04:24:40.160Z,9.00
2023-03-15T04:27:09.345Z,7.50
2023-03-15T04:29:38.022Z,6.20
2023-03-15T04:32:07.156Z,5.30
2023-03-15T04:34:39.356Z,5.60
2023-03-15T04:37:08.151Z,4.10
2023-03-15T04:39:36.889Z,4.30
2023-03-15T04:42:05.789Z,3.30
2023-03-15T04:44:34.655Z,3.60
2023-03-15T04:47:03.656Z,3.90
2023-03-15T04:49:32.384Z,3.60
2023-03-15T04:52:01.383Z,5.10
2023-03-15T04:54:30.964Z,5.20
2023-03-15T04:56:59.836Z,4.00
2023-03-15T04:59:28.631Z,6.50
2023-03-15T05:01:57.731Z,41.90
2023-03-15T05:04:26.191Z,42.60
2023-03-15T05:06:55.009Z,15.80
2023-03-15T05:09:23.988Z,19.70
2023-03-15T05:11:52.556Z,7.60
2023-03-15T05:14:21.394Z,3.80
2023-03-15T05:16:52.744Z,2.60
2023-03-15T05:19:22.312Z,3.10
2023-03-15T05:21:51.185Z,2.40
2023-03-15T05:24:19.949Z,3.60
2023-03-15T05:26:48.661Z,3.70
2023-03-15T05:29:17.586Z,4.90
2023-03-15T05:31:46.572Z,6.00
2023-03-15T05:34:15.873Z,6.20
2023-03-15T05:36:44.980Z,6.40
2023-03-15T05:39:17.124Z,5.10
2023-03-15T05:41:45.869Z,7.20
2023-03-15T05:44:14.872Z,6.80
2023-03-15T05:46:43.862Z,5.90
2023-03-15T05:49:12.645Z,4.00
2023-03-15T05:51:42.041Z,14.20
2023-03-15T05:54:11.511Z,31.90
2023-03-15T05:56:40.808Z,17.50
2023-03-15T05:59:09.661Z,14.50
2023-03-15T06:01:38.887Z,20.30
2023-03-15T06:04:07.993Z,12.00
2023-03-15T06:06:36.950Z,9.90
2023-03-15T06:09:06.217Z,3.70
2023-03-15T06:11:35.425Z,3.40
2023-03-15T06:14:05.092Z,4.00
2023-03-15T06:16:34.562Z,8.00
2023-03-15T06:19:04.181Z,7.00
2023-03-15T06:21:33.597Z,6.10
2023-03-15T06:24:02.805Z,7.10
2023-03-15T06:26:32.125Z,6.70
2023-03-15T06:29:01.423Z,6.30
2023-03-15T06:31:30.758Z,7.50
2023-03-15T06:34:00.537Z,7.60
2023-03-15T06:36:29.818Z,7.00
2023-03-15T06:38:59.137Z,7.50
2023-03-15T06:41:28.588Z,6.30
2023-03-15T06:43:58.231Z,8.70
2023-03-15T06:46:27.898Z,8.70
2023-03-15T06:48:57.137Z,9.20
2023-03-15T06:51:26.085Z,8.10
2023-03-15T06:53:55.225Z,8.90
2023-03-15T06:56:24.525Z,8.20
2023-03-15T06:58:53.809Z,11.40
2023-03-15T07:01:23.130Z,12.40
2023-03-15T07:03:52.506Z,14.00
2023-03-15T07:06:21.637Z,14.90
2023-03-15T07:08:50.533Z,12.10
2023-03-15T07:11:19.605Z,9.30
2023-03-15T07:13:48.447Z,11.60
2023-03-15T07:16:17.538Z,8.80
2023-03-15T07:18:46.631Z,9.70
2023-03-15T07:21:15.841Z,10.70
2023-03-15T07:23:45.024Z,7.80
2023-03-15T07:26:13.987Z,8.40
2023-03-15T07:28:45.406Z,8.20
2023-03-15T07:31:15.252Z,8.60
2023-03-15T07:33:44.676Z,7.50
2023-03-15T07:36:14.684Z,7.40
2023-03-15T07:38:43.835Z,7.30
2023-03-15T07:41:13.404Z,7.80
2023-03-15T07:43:43.468Z,7.00
2023-03-15T07:46:12.829Z,7.10
2023-03-15T07:48:42.021Z,6.60
2023-03-15T07:51:11.023Z,7.30
2023-03-15T07:53:40.288Z,7.30
2023-03-15T07:56:09.929Z,6.60
2023-03-15T07:58:38.871Z,6.30
2023-03-15T08:01:08.105Z,6.00
2023-03-15T08:03:37.148Z,8.10
2023-03-15T08:06:06.379Z,7.10
2023-03-15T08:08:35.718Z,7.50
2023-03-15T08:11:07.623Z,7.10
2023-03-15T08:13:37.163Z,9.80
2023-03-15T08:16:06.421Z,5.50
2023-03-15T08:18:35.806Z,4.30
2023-03-15T08:21:05.052Z,5.60
2023-03-15T08:23:34.416Z,3.60
2023-03-15T08:26:04.103Z,2.50
2023-03-15T08:28:33.744Z,1.30
2023-03-15T08:31:07.559Z,1.30
2023-03-15T08:33:37.188Z,1.60
2023-03-15T08:36:07.399Z,2.20
2023-03-15T08:38:36.554Z,0.80
2023-03-15T08:41:05.698Z,0.70
2023-03-15T08:43:34.878Z,0.60
2023-03-15T08:46:04.462Z,1.20
2023-03-15T08:48:33.984Z,1.50
2023-03-15T08:51:05.455Z,1.10
2023-03-15T08:53:34.410Z,1.00
2023-03-15T08:56:03.574Z,1.30
2023-03-15T08:58:32.700Z,1.20
2023-03-15T09:01:02.210Z,0.80
2023-03-15T09:03:33.301Z,0.70
2023-03-15T09:06:03.095Z,0.70
2023-03-15T09:08:33.865Z,0.70
2023-03-15T09:11:03.065Z,1.20
2023-03-15T09:13:32.264Z,0.90
2023-03-15T09:16:01.566Z,0.90
2023-03-15T09:18:31.420Z,0.80
2023-03-15T09:21:00.483Z,0.80
2023-03-15T09:23:29.900Z,0.80
2023-03-15T09:25:59.165Z,1.10
2023-03-15T09:28:28.864Z,1.40
2023-03-15T09:31:00.222Z,2.30
2023-03-15T09:33:29.623Z,2.30
2023-03-15T09:35:58.814Z,1.20
2023-03-15T09:38:28.149Z,1.20
2023-03-15T09:41:00.788Z,0.90
2023-03-15T09:43:42.346Z,1.80
2023-03-15T09:46:42.601Z,0.80
2023-03-15T09:49:22.876Z,2.60
2023-03-15T09:52:15.576Z,2.00
2023-03-15T09:55:11.728Z,2.50
2023-03-15T09:57:47.973Z,2.00
2023-03-15T10:00:34.133Z,2.10
2023-03-15T10:03:10.519Z,1.40
2023-03-15T10:05:47.420Z,2.40
2023-03-15T10:08:20.742Z,1.10
2023-03-15T10:10:52.833Z,1.70
2023-03-15T10:13:34.565Z,0.90
2023-03-15T10:16:10.560Z,1.80
2023-03-15T10:18:46.270Z,1.90
2023-03-15T10:21:49.368Z,1.60
2023-03-15T10:24:32.668Z,1.30
2023-03-15T10:27:16.686Z,2.00
2023-03-15T10:29:47.822Z,1.20
2023-03-15T10:32:19.909Z,1.60
2023-03-15T10:34:52.737Z,3.20
2023-03-15T10:37:25.711Z,1.80
2023-03-15T10:39:59.601Z,1.60
2023-03-15T10:42:34.286Z,1.30
2023-03-15T10:45:34.295Z,1.00
2023-03-15T10:48:03.894Z,1.30
2023-03-15T10:50:35.618Z,0.70
2023-03-15T10:53:18.464Z,0.60
2023-03-15T10:55:47.485Z,1.70
2023-03-15T10:58:31.864Z,1.10
2023-03-15T11:01:10.465Z,1.20
2023-03-15T11:03:41.750Z,1.00
2023-03-15T11:06:27.815Z,1.70
2023-03-15T11:09:19.647Z,2.00
2023-03-15T11:12:03.995Z,0.90
2023-03-15T11:14:44.298Z,1.10
2023-03-15T11:17:23.022Z,0.70
2023-03-15T11:20:00.195Z,1.20
2023-03-15T11:22:31.004Z,1.10
2023-03-15T11:25:00.595Z,3.40
2023-03-15T11:27:30.253Z,1.00
2023-03-15T11:30:02.110Z,1.10
2023-03-15T11:32:33.588Z,1.60
2023-03-15T11:35:07.947Z,1.30
2023-03-15T11:38:14.621Z,2.00
2023-03-15T11:40:50.453Z,1.20
2023-03-15T11:43:26.274Z,0.90
2023-03-15T11:45:59.521Z,1.10
2023-03-15T11:48:49.317Z,1.90
2023-03-15T11:51:18.884Z,3.10
2023-03-15T11:54:04.421Z,1.00
2023-03-15T11:56:55.594Z,4.00
2023-03-15T11:59:33.334Z,1.70
2023-03-15T12:02:14.601Z,0.70
2023-03-15T12:04:51.310Z,1.30
2023-03-15T12:07:20.535Z,1.00
2023-03-15T12:10:05.530Z,1.20
2023-03-15T12:12:37.374Z,1.50
2023-03-15T12:15:15.473Z,1.10
2023-03-15T12:17:44.488Z,1.70
2023-03-15T12:20:18.632Z,0.90
2023-03-15T12:23:15.621Z,0.70
2023-03-15T12:26:05.682Z,0.90
2023-03-15T12:29:04.476Z,0.80
2023-03-15T12:31:53.130Z,0.60
2023-03-15T12:34:37.759Z,0.70
2023-03-15T12:37:18.331Z,1.50
2023-03-15T12:39:59.583Z,1.70
2023-03-15T12:42:53.112Z,1.50
2023-03-15T12:45:27.989Z,1.60
2023-03-15T12:47:59.676Z,4.20
2023-03-15T12:50:48.443Z,3.70
2023-03-15T12:53:40.540Z,3.80
2023-03-15T12:56:33.439Z,5.50
2023-03-15T12:59:58.778Z,2.20
2023-03-15T13:02:44.618Z,1.20
2023-03-15T13:05:23.734Z,6.20
2023-03-15T13:07:52.891Z,3.90
2023-03-15T13:10:33.620Z,9.20
2023-03-15T13:13:31.219Z,4.60
2023-03-15T13:16:20.407Z,8.20
2023-03-15T13:19:06.921Z,1.80
2023-03-15T13:21:43.834Z,2.70
2023-03-15T13:24:24.668Z,1.50
2023-03-15T13:27:35.850Z,1.90
2023-03-15T13:30:31.658Z,1.90
2023-03-15T13:33:19.267Z,1.40
2023-03-15T13:35:56.650Z,1.00
2023-03-15T13:38:32.660Z,1.60
2023-03-15T13:41:05.183Z,1.20
2023-03-15T13:43:38.374Z,2.70
2023-03-15T13:46:08.924Z,3.00
2023-03-15T13:48:44.380Z,2.80
2023-03-15T13:51:31.098Z,4.20
2023-03-15T13:54:15.710Z,3.60
2023-03-15T13:56:56.689Z,2.30
2023-03-15T13:59:33.348Z,9.30
2023-03-15T14:02:06.700Z,9.00
2023-03-15T14:04:39.355Z,4.50
2023-03-15T14:07:23.635Z,3.90
2023-03-15T14:10:20.196Z,1.60
2023-03-15T14:12:50.430Z,1.40
2023-03-15T14:15:43.481Z,1.40
2023-03-15T14:18:18.433Z,2.10
2023-03-15T14:20:55.210Z,1.30
2023-03-15T14:23:26.699Z,2.20
2023-03-15T14:26:03.178Z,1.20
2023-03-15T14:28:33.971Z,1.10
2023-03-15T14:31:05.041Z,2.30
2023-03-15T14:33:41.153Z,2.10
2023-03-15T14:36:30.074Z,1.20
2023-03-15T14:39:00.255Z,2.20
2023-03-15T14:41:31.835Z,1.20
2023-03-15T14:44:03.958Z,1.00
2023-03-15T14:46:33.242Z,0.70
2023-03-15T14:49:02.877Z,1.20
2023-03-15T14:51:33.616Z,1.50
2023-03-15T14:54:04.897Z,2.00
2023-03-15T14:56:37.629Z,1.30
2023-03-15T14:59:13.744Z,1.70
2023-03-15T15:01:50.844Z,1.10
2023-03-15T15:04:23.267Z,1.50
2023-03-15T15:06:53.749Z,1.30
2023-03-15T15:09:26.187Z,1.90
2023-03-15T15:11:57.096Z,1.10
2023-03-15T15:14:26.714Z,1.80
2023-03-15T15:16:59.539Z,1.60
2023-03-15T15:19:29.508Z,3.00
2023-03-15T15:21:59.628Z,2.60
2023-03-15T15:24:29.366Z,1.70
2023-03-15T15:26:59.814Z,1.30
2023-03-15T15:29:29.407Z,3.10
2023-03-15T15:31:58.798Z,1.10
2023-03-15T15:34:29.641Z,2.20
2023-03-15T15:37:00.599Z,2.70
2023-03-15T15:39:30.177Z,2.20
2023-03-15T15:42:00.349Z,1.10
2023-03-15T15:44:30.650Z,1.30
2023-03-15T15:47:03.178Z,1.40
2023-03-15T15:49:32.930Z,1.20
2023-03-15T15:52:03.180Z,5.90
2023-03-15T15:54:36.639Z,1.20
2023-03-15T15:57:08.915Z,1.70
2023-03-15T15:59:39.657Z,2.00
2023-03-15T16:02:23.438Z,2.10
2023-03-15T16:04:53.235Z,1.80
2023-03-15T16:07:22.401Z,0.90
2023-03-15T16:09:58.665Z,1.20
2023-03-15T16:12:28.975Z,1.50
2023-03-15T16:14:59.141Z,1.20
2023-03-15T16:17:30.787Z,0.90
2023-03-15T16:20:00.510Z,2.60
2023-03-15T16:22:30.453Z,1.00
2023-03-15T16:25:02.243Z,0.90
2023-03-15T16:27:31.639Z,1.60
2023-03-15T16:30:02.848Z,2.00
2023-03-15T16:32:43.504Z,2.50
2023-03-15T16:35:18.750Z,2.20
2023-03-15T16:37:48.977Z,1.80
2023-03-15T16:40:26.158Z,0.90
2023-03-15T16:42:57.554Z,2.00
2023-03-15T16:45:28.345Z,1.60
2023-03-15T16:47:57.841Z,1.40
2023-03-15T16:50:29.182Z,1.60
2023-03-15T16:53:03.906Z,1.80
2023-03-15T16:55:35.110Z,5.80
2023-03-15T16:58:19.752Z,4.20
2023-03-15T17:00:49.759Z,5.80
2023-03-15T17:03:19.432Z,4.80
2023-03-15T17:05:49.159Z,5.40
2023-03-15T17:08:22.037Z,4.20
2023-03-15T17:10:52.220Z,3.50
2023-03-15T17:13:28.330Z,3.40
2023-03-15T17:15:57.775Z,2.40
2023-03-15T17:18:30.630Z,2.90
2023-03-15T17:21:00.596Z,3.50
2023-03-15T17:23:31.720Z,5.00
2023-03-15T17:26:01.750Z,4.70
2023-03-15T17:28:31.577Z,3.40
2023-03-15T17:31:20.288Z,1.80
2023-03-15T17:33:52.821Z,2.20
2023-03-15T17:36:26.640Z,4.00
2023-03-15T17:38:56.758Z,4.00
2023-03-15T17:41:31.855Z,4.40
2023-03-15T17:44:02.103Z,3.80
2023-03-15T17:46:33.561Z,8.40
2023-03-15T17:49:04.873Z,6.60
2023-03-15T17:51:37.338Z,9.30
2023-03-15T17:54:14.708Z,11.90
2023-03-15T17:56:44.862Z,11.40
2023-03-15T17:59:15.619Z,8.00
2023-03-15T18:01:49.196Z,8.10
2023-03-15T18:04:20.934Z,6.90
2023-03-15T18:06:50.156Z,4.60
2023-03-15T18:09:19.710Z,5.80
2023-03-15T18:11:48.765Z,4.50
2023-03-15T18:14:19.577Z,5.70
2023-03-15T18:16:49.460Z,3.60
2023-03-15T18:19:21.115Z,6.60
2023-03-15T18:21:51.224Z,4.70
2023-03-15T18:24:20.514Z,3.50
2023-03-15T18:26:49.667Z,3.90
2023-03-15T18:29:19.714Z,6.80
2023-03-15T18:31:49.848Z,7.10
2023-03-15T18:34:22.216Z,27.60
2023-03-15T18:36:51.190Z,40.50
2023-03-15T18:39:24.804Z,49.00
2023-03-15T18:41:54.596Z,25.70
2023-03-15T18:44:23.890Z,23.90
2023-03-15T18:46:54.671Z,10.80
2023-03-15T18:49:23.695Z,6.10
2023-03-15T18:51:56.857Z,5.50
2023-03-15T18:54:27.077Z,3.30
2023-03-15T18:56:56.329Z,5.50
2023-03-15T18:59:25.977Z,10.60
2023-03-15T19:01:55.349Z,9.50
2023-03-15T19:04:24.776Z,6.20
2023-03-15T19:06:53.773Z,4.00
2023-03-15T19:09:22.737Z,15.50
2023-03-15T19:11:51.773Z,6.30
2023-03-15T19:14:21.240Z,6.40
2023-03-15T19:16:50.599Z,8.20
2023-03-15T19:19:19.521Z,10.50
2023-03-15T19:21:49.114Z,20.90
2023-03-15T19:24:18.679Z,9.00
2023-03-15T19:26:49.562Z,6.60
2023-03-15T19:29:19.569Z,5.70
2023-03-15T19:31:50.051Z,7.30
2023-03-15T19:34:20.290Z,10.50
2023-03-15T19:36:50.333Z,5.20
2023-03-15T19:39:19.458Z,11.70
2023-03-15T19:41:49.409Z,15.60
2023-03-15T19:44:19.685Z,2.60
2023-03-15T19:46:51.335Z,7.30
2023-03-15T19:49:20.602Z,32.10
2023-03-15T19:51:50.967Z,60.50
2023-03-15T19:54:21.796Z,7.30
2023-03-15T19:56:52.825Z,5.80
2023-03-15T19:59:22.663Z,5.10
2023-03-15T20:01:53.350Z,5.50
2023-03-15T20:04:23.736Z,6.60
2023-03-15T20:06:53.942Z,9.10
2023-03-15T20:09:23.339Z,4.00
2023-03-15T20:11:54.178Z,3.00
2023-03-15T20:14:28.226Z,3.20
2023-03-15T20:16:59.815Z,2.50
2023-03-15T20:19:31.304Z,2.50
2023-03-15T20:22:01.962Z,1.70
2023-03-15T20:24:32.824Z,2.00
2023-03-15T20:27:06.149Z,2.30
2023-03-15T20:29:36.362Z,1.90
2023-03-15T20:32:06.528Z,2.40
2023-03-15T20:34:37.072Z,4.70
2023-03-15T20:37:09.273Z,2.70
2023-03-15T20:39:42.367Z,2.90
2023-03-15T20:42:14.147Z,3.00
2023-03-15T20:44:46.732Z,5.50
2023-03-15T20:47:18.313Z,5.00
2023-03-15T20:49:48.751Z,5.60
2023-03-15T20:52:19.593Z,3.30
2023-03-15T20:54:50.891Z,2.90
2023-03-15T20:57:20.385Z,2.10
2023-03-15T20:59:50.477Z,2.10
2023-03-15T21:02:20.551Z,2.20
2023-03-15T21:04:49.969Z,1.80
2023-03-15T21:07:20.594Z,1.80
2023-03-15T21:09:52.260Z,1.90
2023-03-15T21:12:22.124Z,10.20
2023-03-15T21:14:53.542Z,8.90
2023-03-15T21:17:24.918Z,6.00
2023-03-15T21:19:55.208Z,5.30
2023-03-15T21:22:25.079Z,6.60
2023-03-15T21:24:56.402Z,4.40
2023-03-15T21:27:26.978Z,3.20
2023-03-15T21:29:56.765Z,2.70
2023-03-15T21:32:26.585Z,5.30
2023-03-15T21:34:56.810Z,7.00
2023-03-15T21:37:27.735Z,4.60
2023-03-15T21:39:57.361Z,4.20
2023-03-15T21:42:28.890Z,2.70
2023-03-15T21:44:58.513Z,4.10
2023-03-15T21:47:29.441Z,8.90
2023-03-15T21:50:00.211Z,23.30
2023-03-15T21:52:30.487Z,40.20
2023-03-15T21:55:01.067Z,38.70
2023-03-15T21:57:34.506Z,43.50
2023-03-15T22:00:07.758Z,16.00
2023-03-15T22:02:38.196Z,15.80
2023-03-15T22:05:08.293Z,22.50
2023-03-15T22:07:42.139Z,8.50
2023-03-15T22:10:13.534Z,22.60
2023-03-15T22:12:45.082Z,28.70
2023-03-15T22:15:16.349Z,26.90
2023-03-15T22:17:47.598Z,43.30
2023-03-15T22:20:19.181Z,3.90
2023-03-15T22:22:50.043Z,2.50
2023-03-15T22:25:19.349Z,9.30
2023-03-15T22:27:48.824Z,16.90
2023-03-15T22:30:19.294Z,24.00
2023-03-15T22:32:48.362Z,3.70
2023-03-15T22:35:18.687Z,3.10
2023-03-15T22:37:49.937Z,2.90
2023-03-15T22:40:19.337Z,4.40
2023-03-15T22:42:50.392Z,3.40
2023-03-15T22:45:22.647Z,2.40
2023-03-15T22:47:51.789Z,4.40
2023-03-15T22:50:20.949Z,3.10
2023-03-15T22:52:52.576Z,3.10
2023-03-15T22:55:22.865Z,2.30
2023-03-15T22:57:52.112Z,2.60
2023-03-15T23:00:22.864Z,2.30
2023-03-15T23:02:52.970Z,3.20
2023-03-15T23:05:22.598Z,2.80
2023-03-15T23:07:51.882Z,3.40
2023-03-15T23:10:21.554Z,2.40
2023-03-15T23:12:51.863Z,1.90
2023-03-15T23:15:21.370Z,2.00
2023-03-15T23:17:50.372Z,1.40
2023-03-15T23:20:20.440Z,1.70
2023-03-15T23:22:50.773Z,1.10
2023-03-15T23:25:23.005Z,0.90
2023-03-15T23:27:52.580Z,1.10
2023-03-15T23:30:22.648Z,1.30
2023-03-15T23:32:57.939Z,1.90
2023-03-15T23:35:28.615Z,14.50
2023-03-15T23:37:58.610Z,3.40
2023-03-15T23:40:30.478Z,2.60
2023-03-15T23:42:59.603Z,2.30
2023-03-15T23:45:31.197Z,3.20
2023-03-15T23:48:03.436Z,3.40
2023-03-15T23:50:32.875Z,2.10
2023-03-15T23:53:02.048Z,1.80
2023-03-15T23:55:33.797Z,1.80
2023-03-15T23:58:04.100Z,2.30
